createdAt,value
2017-06-14T00:00:11.652Z,48.40
2017-06-14T00:02:39.724Z,46.33
2017-06-14T00:05:09.108Z,58.50
2017-06-14T00:07:37.980Z,68.13
2017-06-14T00:10:08.661Z,60.33
2017-06-14T00:12:37.933Z,69.10
2017-06-14T00:15:07.715Z,56.17
2017-06-14T00:17:37.093Z,66.73
2017-06-14T00:20:07.889Z,59.13
2017-06-14T00:22:37.373Z,65.73
2017-06-14T00:25:06.111Z,59.77
2017-06-14T00:27:35.640Z,64.17
2017-06-14T00:30:04.101Z,64.83
2017-06-14T00:32:34.589Z,55.63
2017-06-14T00:35:02.834Z,59.33
2017-06-14T00:37:31.308Z,65.93
2017-06-14T00:40:00.733Z,55.97
2017-06-14T00:42:29.519Z,64.53
2017-06-14T00:44:58.357Z,66.60
2017-06-14T00:47:29.007Z,46.67
2017-06-14T00:49:57.853Z,45.27
2017-06-14T00:52:27.661Z,52.67
2017-06-14T00:54:58.285Z,61.93
2017-06-14T00:57:28.236Z,65.93
2017-06-14T00:59:58.627Z,55.90
2017-06-14T01:02:27.801Z,57.73
2017-06-14T01:04:56.944Z,59.87
2017-06-14T01:07:27.020Z,69.87
2017-06-14T01:09:56.957Z,67.07
2017-06-14T01:12:26.692Z,61.53
2017-06-14T01:14:56.644Z,70.67
2017-06-14T01:17:26.568Z,74.23
2017-06-14T01:19:56.329Z,63.57
2017-06-14T01:22:25.941Z,59.20
2017-06-14T01:24:55.053Z,68.47
2017-06-14T01:27:24.084Z,66.43
2017-06-14T01:29:53.024Z,76.17
2017-06-14T01:32:21.829Z,65.60
2017-06-14T01:34:52.308Z,66.50
2017-06-14T01:37:21.993Z,63.13
2017-06-14T01:39:51.064Z,70.37
2017-06-14T01:42:20.173Z,67.00
2017-06-14T01:44:49.312Z,70.70
2017-06-14T01:47:20.080Z,67.00
2017-06-14T01:49:49.659Z,75.93
2017-06-14T01:52:19.507Z,65.07
2017-06-14T01:54:48.692Z,66.97
2017-06-14T01:57:18.424Z,76.07
2017-06-14T01:59:47.944Z,71.90
2017-06-14T02:02:17.641Z,69.80
2017-06-14T02:04:48.401Z,72.40
2017-06-14T02:07:17.610Z,72.93
2017-06-14T02:09:47.571Z,62.00
2017-06-14T02:12:16.636Z,60.73
2017-06-14T02:14:45.128Z,74.57
2017-06-14T02:17:13.720Z,57.00
2017-06-14T02:19:42.168Z,53.43
2017-06-14T02:22:10.664Z,58.07
2017-06-14T02:24:39.408Z,57.10
2017-06-14T02:27:07.696Z,59.07
2017-06-14T02:29:35.904Z,59.50
2017-06-14T02:32:05.293Z,59.70
2017-06-14T02:34:33.968Z,50.83
2017-06-14T02:37:03.646Z,60.33
2017-06-14T02:39:33.849Z,52.37
2017-06-14T02:42:04.205Z,51.43
2017-06-14T02:44:34.540Z,51.43
2017-06-14T02:47:03.736Z,50.23
2017-06-14T02:49:33.386Z,55.03
2017-06-14T02:52:02.708Z,52.93
2017-06-14T02:54:30.824Z,48.20
2017-06-14T02:56:59.292Z,49.70
2017-06-14T02:59:27.556Z,56.73
2017-06-14T03:01:56.009Z,59.97
2017-06-14T03:04:24.284Z,49.20
2017-06-14T03:06:54.049Z,51.20
2017-06-14T03:09:22.829Z,46.43
2017-06-14T03:11:51.086Z,45.43
2017-06-14T03:14:19.386Z,49.37
2017-06-14T03:16:47.852Z,51.93
2017-06-14T03:19:16.836Z,56.33
2017-06-14T03:21:45.185Z,65.03
2017-06-14T03:24:13.433Z,59.83
2017-06-14T03:26:42.037Z,50.73
2017-06-14T03:29:11.009Z,52.33
2017-06-14T03:31:39.813Z,54.53
2017-06-14T03:34:07.908Z,53.83
2017-06-14T03:36:36.836Z,54.13
2017-06-14T03:39:06.160Z,55.23
2017-06-14T03:41:36.800Z,50.57
2017-06-14T03:44:06.052Z,47.97
2017-06-14T03:46:35.341Z,45.53
2017-06-14T03:49:05.196Z,44.20
2017-06-14T03:51:34.291Z,45.17
2017-06-14T03:54:03.576Z,45.60
2017-06-14T03:56:32.652Z,44.50
2017-06-14T03:59:00.927Z,56.57
2017-06-14T04:01:29.843Z,45.17
2017-06-14T04:03:58.920Z,47.20
2017-06-14T04:06:27.601Z,42.37
2017-06-14T04:08:56.179Z,43.00
2017-06-14T04:11:24.701Z,44.73
2017-06-14T04:13:53.359Z,42.53
2017-06-14T04:16:22.004Z,40.37
2017-06-14T04:18:51.706Z,35.97
2017-06-14T04:21:22.124Z,49.70
2017-06-14T04:23:50.361Z,42.67
2017-06-14T04:26:18.534Z,34.60
2017-06-14T04:28:47.544Z,38.83
2017-06-14T04:31:16.772Z,36.07
2017-06-14T04:33:47.496Z,33.10
2017-06-14T04:36:22.640Z,33.70
2017-06-14T04:38:52.563Z,28.27
2017-06-14T04:41:21.921Z,34.47
2017-06-14T04:43:49.981Z,27.67
2017-06-14T04:46:18.648Z,33.90
2017-06-14T04:48:47.229Z,28.70
2017-06-14T04:51:15.669Z,23.80
2017-06-14T04:53:44.344Z,31.67
2017-06-14T04:56:13.011Z,32.83
2017-06-14T04:58:41.173Z,24.03
2017-06-14T05:01:09.889Z,25.27
2017-06-14T05:03:37.956Z,34.20
2017-06-14T05:06:06.159Z,21.50
2017-06-14T05:08:34.712Z,31.20
2017-06-14T05:11:03.300Z,31.33
2017-06-14T05:13:31.761Z,21.90
2017-06-14T05:15:59.992Z,29.50
2017-06-14T05:18:28.093Z,35.87
2017-06-14T05:20:56.302Z,30.63
2017-06-14T05:23:24.565Z,21.43
2017-06-14T05:25:52.736Z,28.73
2017-06-14T05:28:21.328Z,35.67
2017-06-14T05:30:49.561Z,26.13
2017-06-14T05:33:17.658Z,31.00
2017-06-14T05:35:45.925Z,27.77
2017-06-14T05:38:14.289Z,36.43
2017-06-14T05:40:42.388Z,37.17
2017-06-14T05:43:11.729Z,26.90
2017-06-14T05:45:39.940Z,27.57
2017-06-14T05:48:08.024Z,32.90
2017-06-14T05:50:36.171Z,25.05
2017-06-14T05:53:04.422Z,25.45
2017-06-14T05:55:32.504Z,25.92
2017-06-14T05:58:00.727Z,35.17
2017-06-14T06:00:28.996Z,30.77
2017-06-14T06:02:57.180Z,25.92
2017-06-14T06:05:26.641Z,27.00
2017-06-14T06:07:55.432Z,21.30
2017-06-14T06:10:23.545Z,26.30
2017-06-14T06:12:51.604Z,27.60
2017-06-14T06:15:19.849Z,24.27
2017-06-14T06:17:47.936Z,36.03
2017-06-14T06:20:16.040Z,34.33
2017-06-14T06:22:44.629Z,24.77
2017-06-14T06:25:12.704Z,36.03
2017-06-14T06:27:40.809Z,42.87
2017-06-14T06:30:09.549Z,25.53
2017-06-14T06:32:38.309Z,35.90
2017-06-14T06:35:07.089Z,25.50
2017-06-14T06:37:35.898Z,34.45
2017-06-14T06:40:04.236Z,33.10
2017-06-14T06:42:32.853Z,28.25
2017-06-14T06:45:01.549Z,22.13
2017-06-14T06:47:30.061Z,30.45
2017-06-14T06:49:58.149Z,31.75
2017-06-14T06:52:26.372Z,31.25
2017-06-14T06:54:54.448Z,36.03
2017-06-14T06:57:22.509Z,42.20
2017-06-14T06:59:50.756Z,26.42
2017-06-14T07:02:18.973Z,34.70
2017-06-14T07:04:47.063Z,28.15
2017-06-14T07:07:15.261Z,25.85
2017-06-14T07:09:43.465Z,27.90
2017-06-14T07:12:12.146Z,39.37
2017-06-14T07:14:41.141Z,30.53
2017-06-14T07:17:09.305Z,42.93
2017-06-14T07:19:37.458Z,35.20
2017-06-14T07:22:06.249Z,42.93
2017-06-14T07:24:34.852Z,33.03
2017-06-14T07:27:04.211Z,28.90
2017-06-14T07:29:32.469Z,31.97
2017-06-14T07:32:00.580Z,34.13
2017-06-14T07:34:28.705Z,28.03
2017-06-14T07:36:56.969Z,22.30
2017-06-14T07:39:25.193Z,32.97
2017-06-14T07:41:53.280Z,35.03
2017-06-14T07:44:21.973Z,28.87
2017-06-14T07:46:50.075Z,36.60
2017-06-14T07:49:18.152Z,35.20
2017-06-14T07:51:47.801Z,31.70
2017-06-14T07:54:16.584Z,30.73
2017-06-14T07:56:44.970Z,43.17
2017-06-14T07:59:13.185Z,33.67
2017-06-14T08:01:41.260Z,36.40
2017-06-14T08:04:09.368Z,33.27
2017-06-14T08:06:37.576Z,33.37
2017-06-14T08:09:05.672Z,30.47
2017-06-14T08:11:33.756Z,32.83
2017-06-14T08:14:01.965Z,36.67
2017-06-14T08:16:30.044Z,26.20
2017-06-14T08:18:58.108Z,25.43
2017-06-14T08:21:26.325Z,26.70
2017-06-14T08:23:54.421Z,32.10
2017-06-14T08:26:22.489Z,37.90
2017-06-14T08:28:50.741Z,37.20
2017-06-14T08:31:18.837Z,35.27
2017-06-14T08:33:48.292Z,38.37
2017-06-14T08:36:16.905Z,40.50
2017-06-14T08:38:45.593Z,31.50
2017-06-14T08:41:14.200Z,38.77
2017-06-14T08:43:42.860Z,35.17
2017-06-14T08:46:11.468Z,38.80
2017-06-14T08:48:39.904Z,28.10
2017-06-14T08:51:08.645Z,37.70
2017-06-14T08:53:38.460Z,29.63
2017-06-14T08:56:06.565Z,35.60
2017-06-14T08:58:34.781Z,34.17
2017-06-14T09:01:03.365Z,35.50
2017-06-14T09:03:31.944Z,34.53
2017-06-14T09:06:00.905Z,33.67
2017-06-14T09:08:28.969Z,33.57
2017-06-14T09:10:58.188Z,39.90
2017-06-14T09:13:26.805Z,34.10
2017-06-14T09:15:55.274Z,39.83
2017-06-14T09:18:23.840Z,37.23
2017-06-14T09:20:52.553Z,30.00
2017-06-14T09:23:21.164Z,32.47
2017-06-14T09:25:49.889Z,22.33
2017-06-14T09:28:19.440Z,39.10
2017-06-14T09:30:48.124Z,39.67
2017-06-14T09:33:16.873Z,36.07
2017-06-14T09:35:46.544Z,40.93
2017-06-14T09:38:15.169Z,33.43
2017-06-14T09:40:43.566Z,52.77
2017-06-14T09:43:12.485Z,31.57
2017-06-14T09:45:41.092Z,36.60
2017-06-14T09:48:09.817Z,38.53
2017-06-14T09:50:39.484Z,33.93
2017-06-14T09:53:08.153Z,33.30
2017-06-14T09:55:36.228Z,36.67
2017-06-14T09:58:04.464Z,32.70
2017-06-14T10:00:32.961Z,32.03
2017-06-14T10:03:01.037Z,31.90
2017-06-14T10:05:29.248Z,31.87
2017-06-14T10:07:57.305Z,32.37
2017-06-14T10:10:25.356Z,31.07
2017-06-14T10:12:53.576Z,32.90
2017-06-14T10:15:21.680Z,37.93
2017-06-14T10:17:49.743Z,34.33
2017-06-14T10:20:19.229Z,37.33
2017-06-14T10:22:47.889Z,33.77
2017-06-14T10:25:16.673Z,29.17
2017-06-14T10:27:46.597Z,40.30
2017-06-14T10:30:15.208Z,30.00
2017-06-14T10:32:43.269Z,31.47
2017-06-14T10:35:11.545Z,29.47
2017-06-14T10:37:39.669Z,33.60
2017-06-14T10:40:07.741Z,40.73
2017-06-14T10:42:37.317Z,37.10
2017-06-14T10:45:05.529Z,36.60
2017-06-14T10:47:33.593Z,31.13
2017-06-14T10:50:01.810Z,34.37
2017-06-14T10:52:29.889Z,41.30
2017-06-14T10:54:57.957Z,33.97
2017-06-14T10:57:26.257Z,31.37
2017-06-14T10:59:54.424Z,31.27
2017-06-14T11:02:22.578Z,29.23
2017-06-14T11:04:51.409Z,29.80
2017-06-14T11:07:20.170Z,27.17
2017-06-14T11:09:48.953Z,28.33
2017-06-14T11:12:17.951Z,26.60
2017-06-14T11:14:46.731Z,33.87
2017-06-14T11:17:15.396Z,26.23
2017-06-14T11:19:43.673Z,33.27
2017-06-14T11:22:11.816Z,27.83
2017-06-14T11:24:39.952Z,29.30
2017-06-14T11:27:08.714Z,29.57
2017-06-14T11:29:36.845Z,26.20
2017-06-14T11:32:05.495Z,32.73
2017-06-14T11:34:34.272Z,32.70
2017-06-14T11:37:02.397Z,26.17
2017-06-14T11:39:32.100Z,29.77
2017-06-14T11:42:00.792Z,29.33
2017-06-14T11:44:29.513Z,29.10
2017-06-14T11:46:58.932Z,33.00
2017-06-14T11:49:27.953Z,34.67
2017-06-14T11:51:56.736Z,31.20
2017-06-14T11:54:25.592Z,27.00
2017-06-14T11:56:55.137Z,26.60
2017-06-14T11:59:23.757Z,28.47
2017-06-14T12:01:52.476Z,24.23
2017-06-14T12:04:21.213Z,31.17
2017-06-14T12:06:49.971Z,25.20
2017-06-14T12:09:18.810Z,30.33
2017-06-14T12:11:47.687Z,29.27
2017-06-14T12:14:15.914Z,27.53
2017-06-14T12:16:44.550Z,29.57
2017-06-14T12:19:13.373Z,26.70
2017-06-14T12:21:42.783Z,36.50
2017-06-14T12:24:11.628Z,26.80
2017-06-14T12:26:39.918Z,25.00
2017-06-14T12:29:08.064Z,28.67
2017-06-14T12:31:36.239Z,28.60
2017-06-14T12:34:04.524Z,28.67
2017-06-14T12:36:32.689Z,32.20
2017-06-14T12:39:00.836Z,22.27
2017-06-14T12:41:29.125Z,23.60
2017-06-14T12:43:57.425Z,41.37
2017-06-14T12:46:25.599Z,29.53
2017-06-14T12:48:54.033Z,24.20
2017-06-14T12:51:23.635Z,24.57
2017-06-14T12:53:51.829Z,29.20
2017-06-14T12:56:20.658Z,26.17
2017-06-14T12:58:49.092Z,22.10
2017-06-14T13:01:17.256Z,20.70
2017-06-14T13:03:45.552Z,25.87
2017-06-14T13:06:14.688Z,20.63
2017-06-14T13:08:42.901Z,32.80
2017-06-14T13:11:11.201Z,22.07
2017-06-14T13:13:39.365Z,22.77
2017-06-14T13:16:07.517Z,16.07
2017-06-14T13:18:35.865Z,21.73
2017-06-14T13:21:04.057Z,31.97
2017-06-14T13:23:32.232Z,25.43
2017-06-14T13:26:00.540Z,27.40
2017-06-14T13:28:28.747Z,22.60
2017-06-14T13:30:56.893Z,29.63
2017-06-14T13:33:25.185Z,26.23
2017-06-14T13:35:53.332Z,26.40
2017-06-14T13:38:22.419Z,29.67
2017-06-14T13:40:51.131Z,22.77
2017-06-14T13:43:19.776Z,36.27
2017-06-14T13:45:48.478Z,29.13
2017-06-14T13:48:17.292Z,25.63
2017-06-14T13:50:46.284Z,25.97
2017-06-14T13:53:14.789Z,27.47
2017-06-14T13:55:43.154Z,25.57
2017-06-14T13:58:12.547Z,38.37
2017-06-14T14:00:42.940Z,25.07
2017-06-14T14:03:13.754Z,29.47
2017-06-14T14:05:42.887Z,29.00
2017-06-14T14:08:12.069Z,28.23
2017-06-14T14:10:40.573Z,29.63
2017-06-14T14:13:10.732Z,29.63
2017-06-14T14:15:39.005Z,28.70
2017-06-14T14:18:08.714Z,31.13
2017-06-14T14:20:37.804Z,31.23
2017-06-14T14:23:05.965Z,35.77
2017-06-14T14:25:34.265Z,33.07
2017-06-14T14:28:04.043Z,33.97
2017-06-14T14:30:32.223Z,33.33
2017-06-14T14:33:01.055Z,36.33
2017-06-14T14:35:29.485Z,33.87
2017-06-14T14:37:57.653Z,34.80
2017-06-14T14:40:26.129Z,37.40
2017-06-14T14:42:55.079Z,35.63
2017-06-14T14:45:23.213Z,35.40
2017-06-14T14:47:52.169Z,36.60
2017-06-14T14:50:20.903Z,36.70
2017-06-14T14:52:49.468Z,38.20
2017-06-14T14:55:18.365Z,35.63
2017-06-14T14:57:46.516Z,38.87
2017-06-14T15:00:15.074Z,39.00
2017-06-14T15:02:44.637Z,42.47
2017-06-14T15:05:12.800Z,41.87
2017-06-14T15:07:40.969Z,41.50
2017-06-14T15:10:09.307Z,41.23
2017-06-14T15:12:37.483Z,44.27
2017-06-14T15:15:05.630Z,44.47
2017-06-14T15:17:33.915Z,45.37
2017-06-14T15:20:03.213Z,46.00
2017-06-14T15:22:31.385Z,46.43
2017-06-14T15:25:00.270Z,44.57
2017-06-14T15:27:28.979Z,45.73
2017-06-14T15:29:57.158Z,45.40
2017-06-14T15:32:25.849Z,45.90
2017-06-14T15:34:54.025Z,47.00
2017-06-14T15:37:22.201Z,47.03
2017-06-14T15:39:50.519Z,47.23
2017-06-14T15:42:18.693Z,42.97
2017-06-14T15:44:46.869Z,43.97
2017-06-14T15:47:15.643Z,46.30
2017-06-14T15:49:45.194Z,42.63
2017-06-14T15:52:13.355Z,43.07
2017-06-14T15:54:41.774Z,45.03
2017-06-14T15:57:09.909Z,43.53
2017-06-14T15:59:38.138Z,44.53
2017-06-14T16:02:06.797Z,44.47
2017-06-14T16:04:34.989Z,44.00
2017-06-14T16:07:03.132Z,46.17
2017-06-14T16:09:31.820Z,44.43
2017-06-14T16:12:00.382Z,44.70
2017-06-14T16:14:29.264Z,41.63
2017-06-14T16:16:58.292Z,42.37
2017-06-14T16:19:27.146Z,37.03
2017-06-14T16:21:55.726Z,39.07
2017-06-14T16:24:25.273Z,39.87
2017-06-14T16:26:54.128Z,42.93
2017-06-14T16:29:22.625Z,38.33
2017-06-14T16:31:51.441Z,47.20
2017-06-14T16:34:20.124Z,36.37
2017-06-14T16:36:48.916Z,41.33
2017-06-14T16:39:17.912Z,39.27
2017-06-14T16:41:46.802Z,45.87
2017-06-14T16:44:15.334Z,42.97
2017-06-14T16:46:45.684Z,37.83
2017-06-14T16:49:14.505Z,47.20
2017-06-14T16:51:43.118Z,44.70
2017-06-14T16:54:12.082Z,44.17
2017-06-14T16:56:41.078Z,48.37
2017-06-14T16:59:09.928Z,46.90
2017-06-14T17:01:39.380Z,40.80
2017-06-14T17:04:07.960Z,47.33
2017-06-14T17:06:36.739Z,43.03
2017-06-14T17:09:05.621Z,38.77
2017-06-14T17:11:34.220Z,47.37
2017-06-14T17:14:02.818Z,39.83
2017-06-14T17:16:31.706Z,45.97
2017-06-14T17:19:00.552Z,51.23
2017-06-14T17:21:29.925Z,37.83
2017-06-14T17:23:58.889Z,49.43
2017-06-14T17:26:27.744Z,45.67
2017-06-14T17:28:56.329Z,37.50
2017-06-14T17:31:25.150Z,49.63
2017-06-14T17:33:53.846Z,46.47
2017-06-14T17:36:22.562Z,38.60
2017-06-14T17:38:50.854Z,38.27
2017-06-14T17:41:19.033Z,39.83
2017-06-14T17:43:47.217Z,49.23
2017-06-14T17:46:15.528Z,37.43
2017-06-14T17:48:43.750Z,47.83
2017-06-14T17:51:12.229Z,44.73
2017-06-14T17:53:41.093Z,54.90
2017-06-14T17:56:09.294Z,38.60
2017-06-14T17:58:38.057Z,48.90
2017-06-14T18:01:06.975Z,35.53
2017-06-14T18:03:35.804Z,44.77
2017-06-14T18:06:04.368Z,46.00
2017-06-14T18:08:34.079Z,43.13
2017-06-14T18:11:02.294Z,39.53
2017-06-14T18:13:31.038Z,38.90
2017-06-14T18:15:59.378Z,47.10
2017-06-14T18:18:28.232Z,56.57
2017-06-14T18:20:56.429Z,44.07
2017-06-14T18:23:24.733Z,40.77
2017-06-14T18:25:52.889Z,53.37
2017-06-14T18:28:21.080Z,52.93
2017-06-14T18:30:49.390Z,39.93
2017-06-14T18:33:17.574Z,39.40
2017-06-14T18:35:45.729Z,37.40
2017-06-14T18:38:14.047Z,44.97
2017-06-14T18:40:42.224Z,46.40
2017-06-14T18:43:10.396Z,49.00
2017-06-14T18:45:38.690Z,45.70
2017-06-14T18:48:06.905Z,47.27
2017-06-14T18:50:35.084Z,41.43
2017-06-14T18:53:03.664Z,37.97
2017-06-14T18:55:32.077Z,42.10
2017-06-14T18:58:01.360Z,38.20
2017-06-14T19:00:30.354Z,47.87
2017-06-14T19:02:58.829Z,43.00
2017-06-14T19:05:27.129Z,41.23
2017-06-14T19:07:56.894Z,36.57
2017-06-14T19:10:25.443Z,36.83
2017-06-14T19:12:54.069Z,33.37
2017-06-14T19:15:22.865Z,46.70
2017-06-14T19:17:51.569Z,38.90
2017-06-14T19:20:19.997Z,41.53
2017-06-14T19:22:51.661Z,41.93
2017-06-14T19:25:20.432Z,36.20
2017-06-14T19:27:49.428Z,37.13
2017-06-14T19:30:18.223Z,40.73
2017-06-14T19:32:50.281Z,54.47
2017-06-14T19:35:20.740Z,48.80
2017-06-14T19:37:49.337Z,36.60
2017-06-14T19:40:17.946Z,42.83
2017-06-14T19:42:46.877Z,43.80
2017-06-14T19:45:15.693Z,38.37
2017-06-14T19:47:44.112Z,38.70
2017-06-14T19:50:12.977Z,42.57
2017-06-14T19:52:41.761Z,38.70
2017-06-14T19:55:09.941Z,41.33
2017-06-14T19:57:38.833Z,39.63
2017-06-14T20:00:07.209Z,45.03
2017-06-14T20:02:36.168Z,35.33
2017-06-14T20:05:05.266Z,39.07
2017-06-14T20:07:34.084Z,32.90
2017-06-14T20:10:02.301Z,40.53
2017-06-14T20:12:31.168Z,50.80
2017-06-14T20:14:59.977Z,32.73
2017-06-14T20:17:28.495Z,34.53
2017-06-14T20:19:58.169Z,34.60
2017-06-14T20:22:26.997Z,39.77
2017-06-14T20:25:02.116Z,34.40
2017-06-14T20:27:31.683Z,39.13
2017-06-14T20:30:00.474Z,29.63
2017-06-14T20:32:28.956Z,28.03
2017-06-14T20:34:57.096Z,29.07
2017-06-14T20:37:25.241Z,28.73
2017-06-14T20:39:54.117Z,38.53
2017-06-14T20:42:22.722Z,31.53
2017-06-14T20:44:51.977Z,33.40
2017-06-14T20:47:20.261Z,25.50
2017-06-14T20:49:48.401Z,50.37
2017-06-14T20:52:16.536Z,29.73
2017-06-14T20:54:44.836Z,39.33
2017-06-14T20:57:12.993Z,35.33
2017-06-14T20:59:41.139Z,35.33
2017-06-14T21:02:09.417Z,36.13
2017-06-14T21:04:38.300Z,33.13
2017-06-14T21:07:06.445Z,31.20
2017-06-14T21:09:35.173Z,42.47
2017-06-14T21:12:03.328Z,30.27
2017-06-14T21:14:31.453Z,41.13
2017-06-14T21:16:59.738Z,31.07
2017-06-14T21:19:27.877Z,42.03
2017-06-14T21:21:56.016Z,39.10
2017-06-14T21:24:24.296Z,34.60
2017-06-14T21:26:52.443Z,39.97
2017-06-14T21:29:20.600Z,41.83
2017-06-14T21:31:49.385Z,35.87
2017-06-14T21:34:18.035Z,57.07
2017-06-14T21:36:46.425Z,35.30
2017-06-14T21:39:15.220Z,39.20
2017-06-14T21:41:43.384Z,35.80
2017-06-14T21:44:12.072Z,35.93
2017-06-14T21:46:40.969Z,42.90
2017-06-14T21:49:09.682Z,49.13
2017-06-14T21:51:38.185Z,35.30
2017-06-14T21:54:07.948Z,36.87
2017-06-14T21:56:36.142Z,40.97
2017-06-14T21:59:05.633Z,42.53
2017-06-14T22:01:34.324Z,37.80
2017-06-14T22:04:02.901Z,41.70
2017-06-14T22:06:31.650Z,35.07
2017-06-14T22:09:00.488Z,39.20
2017-06-14T22:11:29.341Z,56.43
2017-06-14T22:13:57.904Z,40.73
2017-06-14T22:16:27.679Z,39.30
2017-06-14T22:18:56.425Z,39.57
2017-06-14T22:21:25.865Z,45.80
2017-06-14T22:23:54.660Z,37.50
2017-06-14T22:26:23.188Z,45.43
2017-06-14T22:28:52.708Z,48.27
2017-06-14T22:31:22.176Z,55.20
2017-06-14T22:33:50.831Z,43.00
2017-06-14T22:36:19.357Z,49.83
2017-06-14T22:38:48.212Z,40.90
2017-06-14T22:41:17.006Z,44.20
2017-06-14T22:43:45.682Z,44.90
2017-06-14T22:46:14.364Z,52.40
2017-06-14T22:48:42.888Z,46.97
2017-06-14T22:51:11.472Z,40.77
2017-06-14T22:53:40.400Z,38.40
2017-06-14T22:56:09.745Z,33.90
2017-06-14T22:58:37.907Z,52.83
2017-06-14T23:01:06.210Z,42.60
2017-06-14T23:03:34.381Z,51.67
2017-06-14T23:06:03.056Z,42.07
2017-06-14T23:08:31.500Z,34.57
2017-06-14T23:10:59.646Z,41.13
2017-06-14T23:13:27.801Z,42.87
2017-06-14T23:15:56.096Z,36.63
2017-06-14T23:18:24.245Z,41.67
2017-06-14T23:20:52.905Z,55.07
2017-06-14T23:23:21.818Z,45.50
2017-06-14T23:25:50.434Z,46.57
2017-06-14T23:28:19.083Z,40.67
2017-06-14T23:30:47.733Z,54.10
2017-06-14T23:33:17.456Z,41.93
2017-06-14T23:35:45.913Z,40.23
2017-06-14T23:38:14.225Z,42.77
2017-06-14T23:40:43.181Z,46.10
2017-06-14T23:43:11.333Z,44.13
2017-06-14T23:45:39.600Z,36.13
2017-06-14T23:48:07.735Z,47.07
2017-06-14T23:50:35.896Z,39.33
2017-06-14T23:53:04.169Z,46.33
2017-06-14T23:55:32.345Z,43.73
2017-06-14T23:58:00.512Z,44.17
